sensor_id;sensor_type;location;lat;lon;timestamp;P1;durP1;ratioP1;P2;durP2;ratioP2
2039;SDS011;1025;42.686;23.350;2022-12-16T00:01:13;67.87;;;60.90;;
2039;SDS011;1025;42.686;23.350;2022-12-16T00:03:40;68.07;;;61.93;;
2039;SDS011;1025;42.686;23.350;2022-12-16T00:06:08;65.53;;;59.67;;
2039;SDS011;1025;42.686;23.350;2022-12-16T00:08:35;69.87;;;62.37;;
2039;SDS011;1025;42.686;23.350;2022-12-16T00:11:02;75.77;;;65.27;;
2039;SDS011;1025;42.686;23.350;2022-12-16T00:13:29;75.00;;;64.80;;
2039;SDS011;1025;42.686;23.350;2022-12-16T00:15:58;68.10;;;61.00;;
2039;SDS011;1025;42.686;23.350;2022-12-16T00:18:24;70.70;;;63.50;;
2039;SDS011;1025;42.686;23.350;2022-12-16T00:20:52;78.80;;;60.10;;
2039;SDS011;1025;42.686;23.350;2022-12-16T00:23:19;69.80;;;62.67;;
2039;SDS011;1025;42.686;23.350;2022-12-16T00:25:45;83.77;;;70.30;;
2039;SDS011;1025;42.686;23.350;2022-12-16T00:28:13;71.80;;;65.23;;
2039;SDS011;1025;42.686;23.350;2022-12-16T00:30:40;68.53;;;56.80;;
2039;SDS011;1025;42.686;23.350;2022-12-16T00:33:08;63.93;;;57.90;;
2039;SDS011;1025;42.686;23.350;2022-12-16T00:35:35;75.47;;;64.63;;
2039;SDS011;1025;42.686;23.350;2022-12-16T00:38:02;64.93;;;59.00;;
2039;SDS011;1025;42.686;23.350;2022-12-16T00:40:28;65.03;;;58.33;;
2039;SDS011;1025;42.686;23.350;2022-12-16T00:42:55;63.97;;;57.80;;
2039;SDS011;1025;42.686;23.350;2022-12-16T00:45:22;68.73;;;61.93;;
2039;SDS011;1025;42.686;23.350;2022-12-16T00:47:49;69.83;;;62.30;;
2039;SDS011;1025;42.686;23.350;2022-12-16T00:50:17;71.60;;;63.83;;
2039;SDS011;1025;42.686;23.350;2022-12-16T00:52:44;64.23;;;58.03;;
2039;SDS011;1025;42.686;23.350;2022-12-16T00:55:11;65.10;;;58.27;;
2039;SDS011;1025;42.686;23.350;2022-12-16T00:57:37;72.67;;;56.87;;
2039;SDS011;1025;42.686;23.350;2022-12-16T01:00:04;64.97;;;56.80;;
2039;SDS011;1025;42.686;23.350;2022-12-16T01:02:31;65.70;;;57.67;;
2039;SDS011;1025;42.686;23.350;2022-12-16T01:04:58;60.10;;;53.60;;
2039;SDS011;1025;42.686;23.350;2022-12-16T01:07:27;61.93;;;52.80;;
2039;SDS011;1025;42.686;23.350;2022-12-16T01:09:53;65.10;;;50.03;;
2039;SDS011;1025;42.686;23.350;2022-12-16T01:12:20;67.83;;;53.80;;
2039;SDS011;1025;42.686;23.350;2022-12-16T01:14:48;57.23;;;50.00;;
2039;SDS011;1025;42.686;23.350;2022-12-16T01:17:14;70.23;;;53.47;;
2039;SDS011;1025;42.686;23.350;2022-12-16T01:19:41;53.00;;;47.10;;
2039;SDS011;1025;42.686;23.350;2022-12-16T01:22:07;55.80;;;46.60;;
2039;SDS011;1025;42.686;23.350;2022-12-16T01:24:35;52.70;;;47.10;;
2039;SDS011;1025;42.686;23.350;2022-12-16T01:27:02;52.40;;;47.10;;
2039;SDS011;1025;42.686;23.350;2022-12-16T01:29:28;55.77;;;43.00;;
2039;SDS011;1025;42.686;23.350;2022-12-16T01:31:55;51.37;;;46.27;;
2039;SDS011;1025;42.686;23.350;2022-12-16T01:34:21;63.63;;;47.10;;
2039;SDS011;1025;42.686;23.350;2022-12-16T01:36:48;57.90;;;47.77;;
2039;SDS011;1025;42.686;23.350;2022-12-16T01:39:16;62.47;;;47.23;;
2039;SDS011;1025;42.686;23.350;2022-12-16T01:41:44;51.77;;;46.77;;
2039;SDS011;1025;42.686;23.350;2022-12-16T01:44:13;61.57;;;47.90;;
2039;SDS011;1025;42.686;23.350;2022-12-16T01:46:40;55.87;;;48.97;;
2039;SDS011;1025;42.686;23.350;2022-12-16T01:49:08;55.80;;;49.87;;
2039;SDS011;1025;42.686;23.350;2022-12-16T01:51:38;62.00;;;47.53;;
2039;SDS011;1025;42.686;23.350;2022-12-16T01:54:05;52.83;;;47.10;;
2039;SDS011;1025;42.686;23.350;2022-12-16T01:56:34;66.23;;;45.60;;
2039;SDS011;1025;42.686;23.350;2022-12-16T01:59:04;65.53;;;48.20;;
2039;SDS011;1025;42.686;23.350;2022-12-16T02:01:30;57.00;;;46.97;;
2039;SDS011;1025;42.686;23.350;2022-12-16T02:03:57;70.17;;;50.70;;
2039;SDS011;1025;42.686;23.350;2022-12-16T02:06:26;60.10;;;47.77;;
2039;SDS011;1025;42.686;23.350;2022-12-16T02:08:53;55.27;;;49.73;;
2039;SDS011;1025;42.686;23.350;2022-12-16T02:11:24;57.43;;;50.33;;
2039;SDS011;1025;42.686;23.350;2022-12-16T02:16:44;62.20;;;48.10;;
2039;SDS011;1025;42.686;23.350;2022-12-16T02:19:17;57.97;;;49.50;;
2039;SDS011;1025;42.686;23.350;2022-12-16T02:21:51;60.83;;;48.60;;
2039;SDS011;1025;42.686;23.350;2022-12-16T02:27:13;66.57;;;49.67;;
2039;SDS011;1025;42.686;23.350;2022-12-16T02:32:27;58.47;;;49.30;;
2039;SDS011;1025;42.686;23.350;2022-12-16T02:34:57;47.87;;;42.77;;
2039;SDS011;1025;42.686;23.350;2022-12-16T02:37:29;52.77;;;43.40;;
2039;SDS011;1025;42.686;23.350;2022-12-16T02:39:58;54.23;;;42.27;;
2039;SDS011;1025;42.686;23.350;2022-12-16T02:42:26;51.90;;;43.77;;
2039;SDS011;1025;42.686;23.350;2022-12-16T02:44:56;45.93;;;37.60;;
2039;SDS011;1025;42.686;23.350;2022-12-16T02:47:27;63.33;;;39.70;;
2039;SDS011;1025;42.686;23.350;2022-12-16T02:49:54;38.27;;;34.17;;
2039;SDS011;1025;42.686;23.350;2022-12-16T02:52:21;55.10;;;46.00;;
2039;SDS011;1025;42.686;23.350;2022-12-16T02:54:48;64.03;;;49.70;;
2039;SDS011;1025;42.686;23.350;2022-12-16T02:57:22;63.43;;;44.40;;
2039;SDS011;1025;42.686;23.350;2022-12-16T02:59:53;46.47;;;41.77;;
2039;SDS011;1025;42.686;23.350;2022-12-16T03:02:25;45.50;;;40.70;;
2039;SDS011;1025;42.686;23.350;2022-12-16T03:04:56;41.73;;;37.13;;
2039;SDS011;1025;42.686;23.350;2022-12-16T03:07:25;55.13;;;37.87;;
2039;SDS011;1025;42.686;23.350;2022-12-16T03:09:53;55.20;;;39.80;;
2039;SDS011;1025;42.686;23.350;2022-12-16T03:12:21;40.90;;;34.80;;
2039;SDS011;1025;42.686;23.350;2022-12-16T03:14:49;51.67;;;35.90;;
2039;SDS011;1025;42.686;23.350;2022-12-16T03:17:16;40.30;;;36.00;;
2039;SDS011;1025;42.686;23.350;2022-12-16T03:19:44;41.43;;;37.33;;
2039;SDS011;1025;42.686;23.350;2022-12-16T03:22:16;46.70;;;40.77;;
2039;SDS011;1025;42.686;23.350;2022-12-16T03:24:44;44.40;;;39.67;;
2039;SDS011;1025;42.686;23.350;2022-12-16T03:27:11;41.80;;;36.27;;
2039;SDS011;1025;42.686;23.350;2022-12-16T03:29:44;46.87;;;36.67;;
2039;SDS011;1025;42.686;23.350;2022-12-16T03:32:12;41.93;;;37.73;;
2039;SDS011;1025;42.686;23.350;2022-12-16T03:34:42;39.83;;;35.57;;
2039;SDS011;1025;42.686;23.350;2022-12-16T03:37:10;39.37;;;35.13;;
2039;SDS011;1025;42.686;23.350;2022-12-16T03:39:40;41.87;;;37.60;;
2039;SDS011;1025;42.686;23.350;2022-12-16T03:42:07;48.00;;;37.03;;
2039;SDS011;1025;42.686;23.350;2022-12-16T03:44:34;39.43;;;33.17;;
2039;SDS011;1025;42.686;23.350;2022-12-16T03:47:01;33.90;;;30.70;;
2039;SDS011;1025;42.686;23.350;2022-12-16T03:49:27;38.10;;;30.40;;
2039;SDS011;1025;42.686;23.350;2022-12-16T03:51:54;35.40;;;29.33;;
2039;SDS011;1025;42.686;23.350;2022-12-16T03:54:20;40.80;;;30.47;;
2039;SDS011;1025;42.686;23.350;2022-12-16T03:56:49;33.13;;;29.63;;
2039;SDS011;1025;42.686;23.350;2022-12-16T03:59:15;34.30;;;28.83;;
2039;SDS011;1025;42.686;23.350;2022-12-16T04:01:42;32.87;;;29.53;;
2039;SDS011;1025;42.686;23.350;2022-12-16T04:04:08;34.27;;;27.43;;
2039;SDS011;1025;42.686;23.350;2022-12-16T04:06:35;34.07;;;28.67;;
2039;SDS011;1025;42.686;23.350;2022-12-16T04:09:01;32.60;;;29.20;;
2039;SDS011;1025;42.686;23.350;2022-12-16T04:11:28;31.37;;;28.10;;
2039;SDS011;1025;42.686;23.350;2022-12-16T04:14:18;32.53;;;28.93;;
2039;SDS011;1025;42.686;23.350;2022-12-16T04:17:02;29.40;;;26.53;;
2039;SDS011;1025;42.686;23.350;2022-12-16T04:19:46;31.77;;;28.40;;
2039;SDS011;1025;42.686;23.350;2022-12-16T04:22:31;28.70;;;25.50;;
2039;SDS011;1025;42.686;23.350;2022-12-16T04:25:16;37.60;;;29.47;;
2039;SDS011;1025;42.686;23.350;2022-12-16T04:27:44;34.03;;;30.47;;
2039;SDS011;1025;42.686;23.350;2022-12-16T04:30:12;34.13;;;30.77;;
2039;SDS011;1025;42.686;23.350;2022-12-16T04:32:46;35.30;;;32.00;;
2039;SDS011;1025;42.686;23.350;2022-12-16T04:35:30;37.30;;;33.40;;
2039;SDS011;1025;42.686;23.350;2022-12-16T04:38:14;32.23;;;29.30;;
2039;SDS011;1025;42.686;23.350;2022-12-16T04:40:58;35.37;;;31.53;;
2039;SDS011;1025;42.686;23.350;2022-12-16T04:43:42;31.63;;;28.73;;
2039;SDS011;1025;42.686;23.350;2022-12-16T04:46:27;34.97;;;31.67;;
2039;SDS011;1025;42.686;23.350;2022-12-16T04:49:11;39.70;;;32.07;;
2039;SDS011;1025;42.686;23.350;2022-12-16T04:51:55;30.83;;;27.93;;
2039;SDS011;1025;42.686;23.350;2022-12-16T04:54:39;32.47;;;29.47;;
2039;SDS011;1025;42.686;23.350;2022-12-16T04:57:23;34.23;;;31.13;;
2039;SDS011;1025;42.686;23.350;2022-12-16T05:00:07;32.77;;;29.67;;
2039;SDS011;1025;42.686;23.350;2022-12-16T05:02:53;31.33;;;27.93;;
2039;SDS011;1025;42.686;23.350;2022-12-16T05:05:37;29.83;;;26.67;;
2039;SDS011;1025;42.686;23.350;2022-12-16T05:08:21;33.07;;;29.77;;
2039;SDS011;1025;42.686;23.350;2022-12-16T05:11:05;35.80;;;29.83;;
2039;SDS011;1025;42.686;23.350;2022-12-16T05:13:49;36.83;;;26.93;;
2039;SDS011;1025;42.686;23.350;2022-12-16T05:16:33;31.70;;;28.30;;
2039;SDS011;1025;42.686;23.350;2022-12-16T05:19:18;29.87;;;23.80;;
2039;SDS011;1025;42.686;23.350;2022-12-16T05:22:03;25.47;;;23.40;;
2039;SDS011;1025;42.686;23.350;2022-12-16T05:24:47;29.43;;;26.30;;
2039;SDS011;1025;42.686;23.350;2022-12-16T05:27:30;31.37;;;27.97;;
2039;SDS011;1025;42.686;23.350;2022-12-16T05:30:14;24.53;;;22.30;;
2039;SDS011;1025;42.686;23.350;2022-12-16T05:32:58;26.50;;;23.83;;
2039;SDS011;1025;42.686;23.350;2022-12-16T05:35:44;24.33;;;22.23;;
2039;SDS011;1025;42.686;23.350;2022-12-16T05:38:28;25.10;;;21.33;;
2039;SDS011;1025;42.686;23.350;2022-12-16T05:41:12;34.10;;;25.17;;
2039;SDS011;1025;42.686;23.350;2022-12-16T05:43:55;26.07;;;23.77;;
2039;SDS011;1025;42.686;23.350;2022-12-16T05:46:39;30.43;;;27.47;;
2039;SDS011;1025;42.686;23.350;2022-12-16T05:49:20;27.17;;;24.47;;
2039;SDS011;1025;42.686;23.350;2022-12-16T05:52:05;40.57;;;24.60;;
2039;SDS011;1025;42.686;23.350;2022-12-16T05:54:49;28.47;;;24.47;;
2039;SDS011;1025;42.686;23.350;2022-12-16T05:57:29;29.10;;;25.20;;
2039;SDS011;1025;42.686;23.350;2022-12-16T06:00:14;25.20;;;22.77;;
2039;SDS011;1025;42.686;23.350;2022-12-16T06:02:57;28.50;;;22.20;;
2039;SDS011;1025;42.686;23.350;2022-12-16T06:05:41;25.47;;;23.17;;
2039;SDS011;1025;42.686;23.350;2022-12-16T06:08:32;25.97;;;23.67;;
2039;SDS011;1025;42.686;23.350;2022-12-16T06:11:18;25.47;;;23.23;;
2039;SDS011;1025;42.686;23.350;2022-12-16T06:14:02;26.60;;;24.10;;
2039;SDS011;1025;42.686;23.350;2022-12-16T06:16:46;25.57;;;23.23;;
2039;SDS011;1025;42.686;23.350;2022-12-16T06:19:38;23.30;;;21.13;;
2039;SDS011;1025;42.686;23.350;2022-12-16T06:22:22;26.00;;;22.97;;
2039;SDS011;1025;42.686;23.350;2022-12-16T06:25:08;25.53;;;23.33;;
2039;SDS011;1025;42.686;23.350;2022-12-16T06:27:52;24.50;;;21.97;;
2039;SDS011;1025;42.686;23.350;2022-12-16T06:30:36;23.30;;;21.20;;
2039;SDS011;1025;42.686;23.350;2022-12-16T06:33:20;24.10;;;21.50;;
2039;SDS011;1025;42.686;23.350;2022-12-16T06:36:04;23.57;;;19.57;;
2039;SDS011;1025;42.686;23.350;2022-12-16T06:38:48;27.93;;;21.33;;
2039;SDS011;1025;42.686;23.350;2022-12-16T06:41:34;21.20;;;18.60;;
2039;SDS011;1025;42.686;23.350;2022-12-16T06:44:18;21.67;;;19.67;;
2039;SDS011;1025;42.686;23.350;2022-12-16T06:47:02;21.50;;;18.60;;
2039;SDS011;1025;42.686;23.350;2022-12-16T06:49:46;19.03;;;16.80;;
2039;SDS011;1025;42.686;23.350;2022-12-16T06:52:30;19.80;;;17.77;;
2039;SDS011;1025;42.686;23.350;2022-12-16T06:55:14;21.40;;;19.20;;
2039;SDS011;1025;42.686;23.350;2022-12-16T06:57:59;22.80;;;20.60;;
2039;SDS011;1025;42.686;23.350;2022-12-16T07:00:43;26.33;;;23.60;;
2039;SDS011;1025;42.686;23.350;2022-12-16T07:03:27;30.00;;;24.23;;
2039;SDS011;1025;42.686;23.350;2022-12-16T07:06:11;29.00;;;22.80;;
2039;SDS011;1025;42.686;23.350;2022-12-16T07:08:55;31.07;;;23.27;;
2039;SDS011;1025;42.686;23.350;2022-12-16T07:11:39;23.07;;;20.50;;
2039;SDS011;1025;42.686;23.350;2022-12-16T07:14:24;30.00;;;24.13;;
2039;SDS011;1025;42.686;23.350;2022-12-16T07:17:08;23.10;;;20.60;;
2039;SDS011;1025;42.686;23.350;2022-12-16T07:19:52;22.60;;;20.50;;
2039;SDS011;1025;42.686;23.350;2022-12-16T07:22:36;22.87;;;20.50;;
2039;SDS011;1025;42.686;23.350;2022-12-16T07:25:20;24.73;;;22.23;;
2039;SDS011;1025;42.686;23.350;2022-12-16T07:28:15;23.07;;;20.90;;
2039;SDS011;1025;42.686;23.350;2022-12-16T07:31:01;21.97;;;19.97;;
2039;SDS011;1025;42.686;23.350;2022-12-16T07:33:45;24.90;;;22.67;;
2039;SDS011;1025;42.686;23.350;2022-12-16T07:36:29;42.77;;;20.57;;
2039;SDS011;1025;42.686;23.350;2022-12-16T07:39:13;26.33;;;21.90;;
2039;SDS011;1025;42.686;23.350;2022-12-16T07:41:57;25.00;;;22.50;;
2039;SDS011;1025;42.686;23.350;2022-12-16T07:44:41;26.47;;;23.73;;
2039;SDS011;1025;42.686;23.350;2022-12-16T07:47:26;21.67;;;19.37;;
2039;SDS011;1025;42.686;23.350;2022-12-16T07:50:10;26.98;;;24.52;;
2039;SDS011;1025;42.686;23.350;2022-12-16T07:52:54;28.53;;;25.67;;
2039;SDS011;1025;42.686;23.350;2022-12-16T07:55:38;29.13;;;25.33;;
2039;SDS011;1025;42.686;23.350;2022-12-16T07:58:18;40.33;;;25.13;;
2039;SDS011;1025;42.686;23.350;2022-12-16T08:01:02;26.00;;;23.37;;
2039;SDS011;1025;42.686;23.350;2022-12-16T08:03:48;24.00;;;21.70;;
2039;SDS011;1025;42.686;23.350;2022-12-16T08:06:32;27.80;;;24.27;;
2039;SDS011;1025;42.686;23.350;2022-12-16T08:09:24;26.87;;;24.43;;
2039;SDS011;1025;42.686;23.350;2022-12-16T08:12:08;25.27;;;22.67;;
2039;SDS011;1025;42.686;23.350;2022-12-16T08:14:52;31.23;;;26.97;;
2039;SDS011;1025;42.686;23.350;2022-12-16T08:17:36;25.23;;;22.73;;
2039;SDS011;1025;42.686;23.350;2022-12-16T08:20:21;31.53;;;25.80;;
2039;SDS011;1025;42.686;23.350;2022-12-16T08:23:06;33.63;;;26.40;;
2039;SDS011;1025;42.686;23.350;2022-12-16T08:25:50;31.47;;;28.20;;
2039;SDS011;1025;42.686;23.350;2022-12-16T08:28:34;25.80;;;23.17;;
2039;SDS011;1025;42.686;23.350;2022-12-16T08:31:17;36.87;;;30.63;;
2039;SDS011;1025;42.686;23.350;2022-12-16T08:34:02;43.47;;;28.30;;
2039;SDS011;1025;42.686;23.350;2022-12-16T08:36:47;34.70;;;28.50;;
2039;SDS011;1025;42.686;23.350;2022-12-16T08:39:31;32.43;;;27.03;;
2039;SDS011;1025;42.686;23.350;2022-12-16T08:42:15;34.20;;;30.73;;
2039;SDS011;1025;42.686;23.350;2022-12-16T08:44:59;31.97;;;28.70;;
2039;SDS011;1025;42.686;23.350;2022-12-16T08:47:43;29.97;;;26.87;;
2039;SDS011;1025;42.686;23.350;2022-12-16T08:50:27;33.63;;;30.50;;
2039;SDS011;1025;42.686;23.350;2022-12-16T08:53:12;48.13;;;29.60;;
2039;SDS011;1025;42.686;23.350;2022-12-16T08:55:56;34.87;;;26.87;;
2039;SDS011;1025;42.686;23.350;2022-12-16T08:58:40;34.03;;;27.73;;
2039;SDS011;1025;42.686;23.350;2022-12-16T09:01:24;27.83;;;25.27;;
2039;SDS011;1025;42.686;23.350;2022-12-16T09:04:08;41.30;;;26.90;;
2039;SDS011;1025;42.686;23.350;2022-12-16T09:06:52;31.30;;;28.50;;
2039;SDS011;1025;42.686;23.350;2022-12-16T09:09:37;28.63;;;25.60;;
2039;SDS011;1025;42.686;23.350;2022-12-16T09:12:21;29.23;;;26.23;;
2039;SDS011;1025;42.686;23.350;2022-12-16T09:15:06;29.63;;;26.27;;
2039;SDS011;1025;42.686;23.350;2022-12-16T09:17:52;30.47;;;27.50;;
2039;SDS011;1025;42.686;23.350;2022-12-16T09:20:36;31.10;;;27.53;;
2039;SDS011;1025;42.686;23.350;2022-12-16T09:23:20;34.63;;;26.70;;
2039;SDS011;1025;42.686;23.350;2022-12-16T09:26:05;30.63;;;26.40;;
2039;SDS011;1025;42.686;23.350;2022-12-16T09:28:49;35.27;;;28.07;;
2039;SDS011;1025;42.686;23.350;2022-12-16T09:31:33;35.97;;;29.50;;
2039;SDS011;1025;42.686;23.350;2022-12-16T09:34:17;29.93;;;27.00;;
2039;SDS011;1025;42.686;23.350;2022-12-16T09:37:01;27.73;;;24.90;;
2039;SDS011;1025;42.686;23.350;2022-12-16T09:39:45;30.43;;;25.43;;
2039;SDS011;1025;42.686;23.350;2022-12-16T09:42:32;27.60;;;24.90;;
2039;SDS011;1025;42.686;23.350;2022-12-16T09:45:25;26.40;;;23.60;;
2039;SDS011;1025;42.686;23.350;2022-12-16T09:48:17;29.17;;;24.43;;
2039;SDS011;1025;42.686;23.350;2022-12-16T09:51:03;25.53;;;22.50;;
2039;SDS011;1025;42.686;23.350;2022-12-16T09:53:48;25.23;;;22.80;;
2039;SDS011;1025;42.686;23.350;2022-12-16T09:56:33;31.40;;;22.87;;
2039;SDS011;1025;42.686;23.350;2022-12-16T09:59:19;27.17;;;20.70;;
2039;SDS011;1025;42.686;23.350;2022-12-16T10:02:08;28.63;;;22.13;;
2039;SDS011;1025;42.686;23.350;2022-12-16T10:04:52;33.30;;;25.20;;
2039;SDS011;1025;42.686;23.350;2022-12-16T10:07:37;26.33;;;24.10;;
2039;SDS011;1025;42.686;23.350;2022-12-16T10:10:24;24.53;;;22.33;;
2039;SDS011;1025;42.686;23.350;2022-12-16T10:13:13;27.50;;;23.90;;
2039;SDS011;1025;42.686;23.350;2022-12-16T10:16:02;30.87;;;22.50;;
2039;SDS011;1025;42.686;23.350;2022-12-16T10:18:51;23.07;;;20.90;;
2039;SDS011;1025;42.686;23.350;2022-12-16T10:21:38;23.47;;;21.07;;
2039;SDS011;1025;42.686;23.350;2022-12-16T10:24:27;22.93;;;20.93;;
2039;SDS011;1025;42.686;23.350;2022-12-16T10:27:13;21.17;;;18.97;;
2039;SDS011;1025;42.686;23.350;2022-12-16T10:29:54;23.17;;;20.97;;
2039;SDS011;1025;42.686;23.350;2022-12-16T10:32:40;23.07;;;20.60;;
2039;SDS011;1025;42.686;23.350;2022-12-16T10:35:26;34.43;;;22.50;;
2039;SDS011;1025;42.686;23.350;2022-12-16T10:38:13;23.83;;;21.53;;
2039;SDS011;1025;42.686;23.350;2022-12-16T10:40:59;23.27;;;20.93;;
2039;SDS011;1025;42.686;23.350;2022-12-16T10:43:44;33.30;;;22.50;;
2039;SDS011;1025;42.686;23.350;2022-12-16T10:46:32;20.60;;;18.77;;
2039;SDS011;1025;42.686;23.350;2022-12-16T10:49:18;28.27;;;22.60;;
2039;SDS011;1025;42.686;23.350;2022-12-16T10:52:02;21.07;;;19.03;;
2039;SDS011;1025;42.686;23.350;2022-12-16T10:54:48;22.60;;;20.53;;
2039;SDS011;1025;42.686;23.350;2022-12-16T10:57:36;22.20;;;20.20;;
2039;SDS011;1025;42.686;23.350;2022-12-16T11:00:37;19.07;;;17.47;;
2039;SDS011;1025;42.686;23.350;2022-12-16T11:03:21;19.70;;;17.50;;
2039;SDS011;1025;42.686;23.350;2022-12-16T11:06:07;21.60;;;18.70;;
2039;SDS011;1025;42.686;23.350;2022-12-16T11:08:51;21.80;;;18.80;;
2039;SDS011;1025;42.686;23.350;2022-12-16T11:11:35;18.30;;;16.67;;
2039;SDS011;1025;42.686;23.350;2022-12-16T11:14:20;22.27;;;18.50;;
2039;SDS011;1025;42.686;23.350;2022-12-16T11:17:12;24.07;;;20.40;;
2039;SDS011;1025;42.686;23.350;2022-12-16T11:20:07;19.87;;;18.07;;
2039;SDS011;1025;42.686;23.350;2022-12-16T11:23:07;20.80;;;19.00;;
2039;SDS011;1025;42.686;23.350;2022-12-16T11:26:02;21.47;;;19.40;;
2039;SDS011;1025;42.686;23.350;2022-12-16T11:28:48;17.77;;;16.07;;
2039;SDS011;1025;42.686;23.350;2022-12-16T11:31:44;39.77;;;18.50;;
2039;SDS011;1025;42.686;23.350;2022-12-16T11:34:29;17.20;;;15.20;;
2039;SDS011;1025;42.686;23.350;2022-12-16T11:37:09;17.00;;;15.50;;
2039;SDS011;1025;42.686;23.350;2022-12-16T11:39:54;17.83;;;16.43;;
2039;SDS011;1025;42.686;23.350;2022-12-16T11:42:37;31.43;;;20.50;;
2039;SDS011;1025;42.686;23.350;2022-12-16T11:45:22;18.37;;;16.57;;
2039;SDS011;1025;42.686;23.350;2022-12-16T11:48:19;19.60;;;17.63;;
2039;SDS011;1025;42.686;23.350;2022-12-16T11:51:05;17.77;;;15.90;;
2039;SDS011;1025;42.686;23.350;2022-12-16T11:53:55;17.90;;;16.07;;
2039;SDS011;1025;42.686;23.350;2022-12-16T11:56:42;14.07;;;12.70;;
2039;SDS011;1025;42.686;23.350;2022-12-16T11:59:30;17.67;;;15.87;;
2039;SDS011;1025;42.686;23.350;2022-12-16T12:02:16;14.90;;;13.63;;
2039;SDS011;1025;42.686;23.350;2022-12-16T12:05:01;13.40;;;11.17;;
2039;SDS011;1025;42.686;23.350;2022-12-16T12:07:47;12.30;;;11.30;;
2039;SDS011;1025;42.686;23.350;2022-12-16T12:10:42;14.63;;;13.37;;
2039;SDS011;1025;42.686;23.350;2022-12-16T12:13:37;13.03;;;11.80;;
2039;SDS011;1025;42.686;23.350;2022-12-16T12:16:24;18.30;;;16.40;;
2039;SDS011;1025;42.686;23.350;2022-12-16T12:19:11;15.47;;;14.20;;
2039;SDS011;1025;42.686;23.350;2022-12-16T12:21:57;15.90;;;14.37;;
2039;SDS011;1025;42.686;23.350;2022-12-16T12:24:44;15.50;;;14.20;;
2039;SDS011;1025;42.686;23.350;2022-12-16T12:27:32;23.70;;;15.13;;
2039;SDS011;1025;42.686;23.350;2022-12-16T12:30:19;14.23;;;12.97;;
2039;SDS011;1025;42.686;23.350;2022-12-16T12:33:08;15.70;;;14.40;;
2039;SDS011;1025;42.686;23.350;2022-12-16T12:36:00;14.47;;;13.20;;
2039;SDS011;1025;42.686;23.350;2022-12-16T12:38:48;13.33;;;11.63;;
2039;SDS011;1025;42.686;23.350;2022-12-16T12:41:40;17.63;;;14.93;;
2039;SDS011;1025;42.686;23.350;2022-12-16T12:44:32;19.27;;;17.37;;
2039;SDS011;1025;42.686;23.350;2022-12-16T12:47:19;15.80;;;14.50;;
2039;SDS011;1025;42.686;23.350;2022-12-16T12:50:07;23.60;;;16.10;;
2039;SDS011;1025;42.686;23.350;2022-12-16T12:53:04;14.97;;;13.70;;
2039;SDS011;1025;42.686;23.350;2022-12-16T12:55:52;21.20;;;17.33;;
2039;SDS011;1025;42.686;23.350;2022-12-16T12:58:40;21.83;;;14.13;;
2039;SDS011;1025;42.686;23.350;2022-12-16T13:01:25;17.03;;;14.70;;
2039;SDS011;1025;42.686;23.350;2022-12-16T13:04:12;21.27;;;19.00;;
2039;SDS011;1025;42.686;23.350;2022-12-16T13:06:58;17.00;;;15.20;;
2039;SDS011;1025;42.686;23.350;2022-12-16T13:12:47;14.10;;;12.80;;
2039;SDS011;1025;42.686;23.350;2022-12-16T13:15:48;20.80;;;15.70;;
2039;SDS011;1025;42.686;23.350;2022-12-16T13:18:32;19.63;;;15.47;;
2039;SDS011;1025;42.686;23.350;2022-12-16T13:24:20;16.60;;;14.87;;
2039;SDS011;1025;42.686;23.350;2022-12-16T13:27:11;14.17;;;13.07;;
2039;SDS011;1025;42.686;23.350;2022-12-16T13:29:59;16.87;;;15.07;;
2039;SDS011;1025;42.686;23.350;2022-12-16T13:32:52;17.23;;;15.67;;
2039;SDS011;1025;42.686;23.350;2022-12-16T13:35:36;17.60;;;16.03;;
2039;SDS011;1025;42.686;23.350;2022-12-16T13:38:34;13.30;;;12.23;;
2039;SDS011;1025;42.686;23.350;2022-12-16T13:44:14;13.80;;;12.50;;
2039;SDS011;1025;42.686;23.350;2022-12-16T13:47:29;16.57;;;14.20;;
2039;SDS011;1025;42.686;23.350;2022-12-16T13:53:08;14.90;;;13.53;;
2039;SDS011;1025;42.686;23.350;2022-12-16T13:55:54;14.10;;;12.87;;
2039;SDS011;1025;42.686;23.350;2022-12-16T13:58:35;23.77;;;16.70;;
2039;SDS011;1025;42.686;23.350;2022-12-16T14:01:24;16.67;;;15.23;;
2039;SDS011;1025;42.686;23.350;2022-12-16T14:04:11;14.40;;;13.50;;
2039;SDS011;1025;42.686;23.350;2022-12-16T14:06:58;13.73;;;12.53;;
2039;SDS011;1025;42.686;23.350;2022-12-16T14:09:42;18.13;;;16.37;;
2039;SDS011;1025;42.686;23.350;2022-12-16T14:15:26;17.67;;;15.70;;
2039;SDS011;1025;42.686;23.350;2022-12-16T14:18:14;15.07;;;13.57;;
2039;SDS011;1025;42.686;23.350;2022-12-16T14:21:02;13.07;;;11.93;;
2039;SDS011;1025;42.686;23.350;2022-12-16T14:23:47;13.63;;;12.30;;
2039;SDS011;1025;42.686;23.350;2022-12-16T14:26:34;21.43;;;15.70;;
2039;SDS011;1025;42.686;23.350;2022-12-16T14:29:19;16.13;;;14.00;;
2039;SDS011;1025;42.686;23.350;2022-12-16T14:32:16;13.50;;;12.30;;
2039;SDS011;1025;42.686;23.350;2022-12-16T14:35:02;15.87;;;14.33;;
2039;SDS011;1025;42.686;23.350;2022-12-16T14:37:46;22.13;;;15.17;;
2039;SDS011;1025;42.686;23.350;2022-12-16T14:40:30;13.77;;;12.70;;
2039;SDS011;1025;42.686;23.350;2022-12-16T14:43:15;14.13;;;13.13;;
2039;SDS011;1025;42.686;23.350;2022-12-16T14:45:59;14.20;;;13.13;;
2039;SDS011;1025;42.686;23.350;2022-12-16T14:48:44;12.87;;;11.67;;
2039;SDS011;1025;42.686;23.350;2022-12-16T14:51:29;15.00;;;13.67;;
2039;SDS011;1025;42.686;23.350;2022-12-16T14:54:21;17.67;;;14.77;;
2039;SDS011;1025;42.686;23.350;2022-12-16T14:57:11;17.13;;;15.40;;
2039;SDS011;1025;42.686;23.350;2022-12-16T14:59:59;12.50;;;10.97;;
2039;SDS011;1025;42.686;23.350;2022-12-16T15:02:43;11.93;;;11.10;;
2039;SDS011;1025;42.686;23.350;2022-12-16T15:05:29;12.43;;;11.50;;
2039;SDS011;1025;42.686;23.350;2022-12-16T15:08:15;12.17;;;11.20;;
2039;SDS011;1025;42.686;23.350;2022-12-16T15:11:00;11.23;;;10.37;;
2039;SDS011;1025;42.686;23.350;2022-12-16T15:13:44;11.10;;;10.40;;
2039;SDS011;1025;42.686;23.350;2022-12-16T15:16:30;11.77;;;10.67;;
2039;SDS011;1025;42.686;23.350;2022-12-16T15:19:15;17.70;;;12.23;;
2039;SDS011;1025;42.686;23.350;2022-12-16T15:22:01;11.60;;;10.50;;
2039;SDS011;1025;42.686;23.350;2022-12-16T15:24:46;12.13;;;10.93;;
2039;SDS011;1025;42.686;23.350;2022-12-16T15:27:32;9.77;;;9.10;;
2039;SDS011;1025;42.686;23.350;2022-12-16T15:33:28;14.43;;;12.03;;
2039;SDS011;1025;42.686;23.350;2022-12-16T15:36:17;11.57;;;10.60;;
2039;SDS011;1025;42.686;23.350;2022-12-16T15:39:07;12.63;;;11.63;;
2039;SDS011;1025;42.686;23.350;2022-12-16T15:42:01;11.76;;;10.93;;
2039;SDS011;1025;42.686;23.350;2022-12-16T15:44:45;13.60;;;11.50;;
2039;SDS011;1025;42.686;23.350;2022-12-16T15:47:31;14.27;;;12.90;;
2039;SDS011;1025;42.686;23.350;2022-12-16T15:50:15;11.63;;;10.63;;
2039;SDS011;1025;42.686;23.350;2022-12-16T15:53:13;12.30;;;11.17;;
2039;SDS011;1025;42.686;23.350;2022-12-16T15:55:57;7.80;;;6.90;;
2039;SDS011;1025;42.686;23.350;2022-12-16T15:58:42;7.90;;;7.20;;
2039;SDS011;1025;42.686;23.350;2022-12-16T16:01:26;11.00;;;9.67;;
2039;SDS011;1025;42.686;23.350;2022-12-16T16:04:14;16.07;;;9.30;;
2039;SDS011;1025;42.686;23.350;2022-12-16T16:07:01;10.10;;;9.20;;
2039;SDS011;1025;42.686;23.350;2022-12-16T16:09:45;8.93;;;8.27;;
2039;SDS011;1025;42.686;23.350;2022-12-16T16:12:29;8.57;;;7.97;;
2039;SDS011;1025;42.686;23.350;2022-12-16T16:15:14;11.90;;;11.00;;
2039;SDS011;1025;42.686;23.350;2022-12-16T16:17:59;9.13;;;8.40;;
2039;SDS011;1025;42.686;23.350;2022-12-16T16:20:43;8.60;;;7.83;;
2039;SDS011;1025;42.686;23.350;2022-12-16T16:23:28;7.23;;;6.70;;